| time (UTC) | temp C | wind direction | speed KPH | gust KPH | rain 1hr cm | rain 24hr cm | rain mn cm | humidity % | barometer mb |
| 20260507050157 | 9 | 318 | 0.0 | 0.0 | 0.00 | 0.53 | 0.00 | 87 | 1010.8 |
| 20260507045157 | 9 | 313 | 0.0 | 0.0 | 0.00 | 0.53 | 0.00 | 87 | 1010.8 |
| 20260507044157 | 10 | 315 | 0.0 | 0.0 | 0.00 | 0.53 | 0.00 | 86 | 1010.6 |
| 20260507043157 | 10 | 316 | 0.0 | 4.8 | 0.00 | 0.53 | 0.00 | 87 | 1010.5 |
| 20260507042157 | 10 | 314 | 0.0 | 4.8 | 0.00 | 0.53 | 0.00 | 87 | 1010.3 |
| 20260507040156 | 10 | 359 | 0.0 | 0.0 | 0.00 | 0.53 | 0.00 | 87 | 1010.2 |
| 20260507035157 | 10 | 354 | 0.0 | 0.0 | 0.00 | 0.53 | 0.53 | 86 | 1010.5 |
| 20260507034157 | 10 | 354 | 0.0 | 0.0 | 0.00 | 0.53 | 0.53 | 86 | 1010.6 |
| 20260507033157 | 11 | 350 | 0.0 | 3.2 | 0.03 | 0.53 | 0.53 | 86 | 1010.4 |
| 20260507032157 | 11 | 354 | 0.0 | 0.0 | 0.03 | 0.53 | 0.53 | 86 | 1010.5 |
| 20260507031157 | 11 | 354 | 0.0 | 9.7 | 0.05 | 0.53 | 0.53 | 85 | 1010.2 |
| 20260507030157 | 12 | 8 | 0.0 | 11.3 | 0.08 | 0.53 | 0.53 | 86 | 1010.2 |
| 20260507025157 | 12 | 11 | 0.0 | 11.3 | 0.13 | 0.53 | 0.53 | 88 | 1010.1 |
| 20260507024157 | 12 | 291 | 0.0 | 0.0 | 0.15 | 0.53 | 0.53 | 89 | 1009.9 |
| 20260507023157 | 13 | 289 | 0.0 | 4.8 | 0.13 | 0.51 | 0.51 | 88 | 1009.7 |
| 20260507022156 | 13 | 299 | 0.0 | 14.5 | 0.13 | 0.51 | 0.51 | 88 | 1009.8 |
| 20260507021156 | 13 | 299 | 0.0 | 14.5 | 0.10 | 0.48 | 0.48 | 88 | 1009.7 |
| 20260507020157 | 13 | 241 | 0.0 | 8.0 | 0.08 | 0.46 | 0.46 | 89 | 1009.7 |
| 20260507015156 | 13 | 243 | 0.0 | 11.3 | 0.05 | 0.41 | 0.41 | 89 | 1009.8 |
| 20260507014157 | 14 | 258 | 0.0 | 0.0 | 0.03 | 0.38 | 0.38 | 89 | 1009.3 |
| 20260507013157 | 14 | 257 | 0.0 | 0.0 | 0.05 | 0.38 | 0.38 | 89 | 1009.1 |
| 20260507012157 | 14 | 259 | 0.0 | 12.9 | 0.05 | 0.38 | 0.38 | 89 | 1009.0 |
| 20260507011157 | 14 | 243 | 8.0 | 12.9 | 0.05 | 0.38 | 0.38 | 90 | 1008.9 |
| 20260507010157 | 14 | 216 | 11.3 | 11.3 | 0.05 | 0.38 | 0.38 | 90 | 1008.9 |
| 20260507004156 | 14 | 191 | 0.0 | 11.3 | 0.03 | 0.36 | 0.36 | 89 | 1008.4 |
| 20260507003157 | 14 | 189 | 0.0 | 12.9 | 0.00 | 0.33 | 0.33 | 89 | 1008.3 |
| 20260507002157 | 14 | 181 | 1.6 | 8.0 | 0.00 | 0.33 | 0.33 | 89 | 1008.3 |
| 20260507001157 | 14 | 179 | 0.0 | 8.0 | 0.00 | 0.33 | 0.33 | 89 | 1008.2 |
| 20260507000157 | 14 | 178 | 0.0 | 9.7 | 0.00 | 0.33 | 0.33 | 89 | 1008.0 |
| 20260506235157 | 14 | 171 | 4.8 | 11.3 | 0.00 | 0.33 | 0.33 | 89 | 1007.9 |
| 20260506234157 | 14 | 212 | 1.6 | 12.9 | 0.00 | 0.33 | 0.33 | 89 | 1008.0 |
| 20260506233157 | 14 | 196 | 11.3 | 12.9 | 0.00 | 0.33 | 0.33 | 89 | 1007.9 |
| 20260506232157 | 14 | 193 | 0.0 | 9.7 | 0.00 | 0.33 | 0.33 | 89 | 1007.8 |
| 20260506231157 | 14 | 199 | 0.0 | 11.3 | 0.00 | 0.33 | 0.33 | 89 | 1007.5 |
| 20260506230157 | 14 | 204 | 11.3 | 14.5 | 0.00 | 0.33 | 0.33 | 89 | 1007.7 |
| 20260506225157 | 14 | 196 | 0.0 | 14.5 | 0.00 | 0.33 | 0.33 | 89 | 1007.6 |
| 20260506224156 | 14 | 198 | 1.6 | 12.9 | 0.00 | 0.33 | 0.33 | 89 | 1007.7 |
| 20260506223156 | 14 | 202 | 0.0 | 17.7 | 0.00 | 0.33 | 0.33 | 89 | 1007.7 |
| 20260506220157 | 14 | 198 | 0.0 | 14.5 | 0.00 | 0.33 | 0.33 | 89 | 1007.8 |
| 20260506215156 | 14 | 200 | 0.0 | 17.7 | 0.00 | 0.33 | 0.33 | 88 | 1007.8 |
| 20260506214156 | 14 | 227 | 0.0 | 17.7 | 0.00 | 0.33 | 0.33 | 88 | 1007.8 |
| 20260506213156 | 14 | 202 | 0.0 | 14.5 | 0.03 | 0.33 | 0.33 | 88 | 1007.9 |
| 20260506212156 | 14 | 183 | 0.0 | 14.5 | 0.03 | 0.33 | 0.33 | 88 | 1007.8 |
| 20260506211157 | 14 | 189 | 1.6 | 12.9 | 0.05 | 0.33 | 0.33 | 88 | 1007.8 |
| 20260506210156 | 14 | 174 | 4.8 | 16.1 | 0.08 | 0.33 | 0.33 | 88 | 1007.6 |
| 20260506205157 | 14 | 210 | 0.0 | 14.5 | 0.13 | 0.33 | 0.33 | 88 | 1007.6 |
| 20260506204157 | 15 | 199 | 0.0 | 19.3 | 0.15 | 0.33 | 0.33 | 88 | 1007.6 |
| 20260506203156 | 15 | 185 | 0.0 | 19.3 | 0.13 | 0.30 | 0.30 | 88 | 1008.0 |
| 20260506201157 | 15 | 193 | 3.2 | 16.1 | 0.15 | 0.28 | 0.28 | 88 | 1008.2 |
| 20260506200156 | 15 | 203 | 9.7 | 17.7 | 0.15 | 0.25 | 0.25 | 88 | 1008.1 |
| 20260506195157 | 15 | 199 | 0.0 | 16.1 | 0.10 | 0.20 | 0.20 | 88 | 1008.2 |
| 20260506193156 | 15 | 187 | 4.8 | 12.9 | 0.10 | 0.18 | 0.18 | 87 | 1008.4 |
| 20260506192157 | 15 | 192 | 0.0 | 17.7 | 0.10 | 0.15 | 0.15 | 87 | 1008.5 |
| 20260506191156 | 15 | 192 | 0.0 | 16.1 | 0.08 | 0.13 | 0.13 | 86 | 1008.6 |
| 20260506190157 | 15 | 184 | 0.0 | 12.9 | 0.08 | 0.10 | 0.10 | 86 | 1008.5 |
| 20260506185156 | 15 | 188 | 3.2 | 12.9 | 0.08 | 0.10 | 0.10 | 86 | 1008.5 |
| 20260506183156 | 16 | 143 | 4.8 | 24.1 | 0.08 | 0.08 | 0.08 | 84 | 1008.6 |
| 20260506182157 | 16 | 179 | 4.8 | 12.9 | 0.05 | 0.05 | 0.05 | 84 | 1008.5 |
| 20260506180157 | 16 | 194 | 0.0 | 17.7 | 0.03 | 0.03 | 0.03 | 83 | 1009.1 |
| 20260506175157 | 16 | 191 | 0.0 | 14.5 | 0.03 | 0.03 | 0.03 | 82 | 1009.3 |
| 20260506174157 | 16 | 179 | 0.0 | 8.0 | 0.00 | 0.00 | 0.00 | 81 | 1009.4 |
| 20260506173157 | 17 | 195 | 0.0 | 8.0 | 0.00 | 0.00 | 0.00 | 80 | 1009.7 |
| 20260506171157 | 17 | 188 | 0.0 | 12.9 | 0.00 | 0.00 | 0.00 | 75 | 1009.9 |
| 20260506170157 | 18 | 208 | 1.6 | 12.9 | 0.00 | 0.00 | 0.00 | 73 | 1009.8 |
| 20260506165157 | 18 | 192 | 8.0 | 14.5 | 0.00 | 0.00 | 0.00 | 72 | 1009.7 |
| 20260506164157 | 18 | 197 | 0.0 | 14.5 | 0.00 | 0.00 | 0.00 | 72 | 1009.8 |
| 20260506163157 | 18 | 182 | 8.0 | 16.1 | 0.00 | 0.00 | 0.00 | 72 | 1009.9 |
| 20260506162157 | 18 | 162 | 3.2 | 16.1 | 0.00 | 0.00 | 0.00 | 72 | 1010.0 |
| 20260506161157 | 18 | 173 | 3.2 | 19.3 | 0.00 | 0.00 | 0.00 | 72 | 1010.1 |
| 20260506160157 | 17 | 181 | 8.0 | 19.3 | 0.00 | 0.00 | 0.00 | 72 | 1010.2 |
| 20260506153157 | 17 | 187 | 0.0 | 17.7 | 0.00 | 0.00 | 0.00 | 73 | 1010.7 |
| 20260506152156 | 17 | 195 | 12.9 | 17.7 | 0.00 | 0.00 | 0.00 | 73 | 1010.7 |
| 20260506150157 | 17 | 183 | 4.8 | 17.7 | 0.00 | 0.00 | 0.00 | 73 | 1011.0 |
| 20260506145157 | 17 | 191 | 3.2 | 20.9 | 0.00 | 0.00 | 0.00 | 73 | 1011.2 |
| 20260506143157 | 18 | 185 | 0.0 | 14.5 | 0.00 | 0.00 | 0.00 | 72 | 1011.0 |
| 20260506141157 | 17 | 164 | 3.2 | 17.7 | 0.00 | 0.00 | 0.00 | 73 | 1011.0 |
| 20260506140157 | 17 | 201 | 8.0 | 24.1 | 0.00 | 0.00 | 0.00 | 74 | 1010.9 |
| 20260506135157 | 17 | 170 | 0.0 | 19.3 | 0.00 | 0.00 | 0.00 | 74 | 1010.9 |
| 20260506134157 | 17 | 195 | 3.2 | 19.3 | 0.00 | 0.00 | 0.00 | 74 | 1010.8 |
| 20260506133156 | 17 | 184 | 4.8 | 19.3 | 0.00 | 0.00 | 0.00 | 75 | 1010.6 |
| 20260506132157 | 17 | 173 | 9.7 | 22.5 | 0.00 | 0.00 | 0.00 | 75 | 1010.9 |
| 20260506131157 | 16 | 191 | 1.6 | 19.3 | 0.00 | 0.00 | 0.00 | 75 | 1010.9 |
| 20260506130157 | 16 | 155 | 11.3 | 24.1 | 0.00 | 0.00 | 0.00 | 75 | 1010.9 |
| 20260506125157 | 16 | 175 | 8.0 | 24.1 | 0.00 | 0.00 | 0.00 | 75 | 1011.2 |
| 20260506124157 | 16 | 190 | 0.0 | 16.1 | 0.00 | 0.00 | 0.00 | 76 | 1011.2 |
| 20260506123157 | 16 | 174 | 1.6 | 11.3 | 0.00 | 0.00 | 0.00 | 77 | 1011.2 |
| 20260506122157 | 16 | 179 | 0.0 | 17.7 | 0.00 | 0.00 | 0.00 | 77 | 1011.3 |
| 20260506120157 | 16 | 181 | 0.0 | 22.5 | 0.00 | 0.00 | 0.00 | 78 | 1011.1 |
| 20260506115157 | 15 | 169 | 6.4 | 16.1 | 0.00 | 0.00 | 0.00 | 78 | 1011.3 |
| 20260506114157 | 15 | 195 | 1.6 | 22.5 | 0.00 | 0.00 | 0.00 | 77 | 1011.5 |
| 20260506113157 | 15 | 168 | 0.0 | 19.3 | 0.00 | 0.00 | 0.00 | 77 | 1011.4 |
| 20260506112157 | 15 | 164 | 6.4 | 19.3 | 0.00 | 0.00 | 0.00 | 78 | 1011.4 |
| 20260506110157 | 15 | 193 | 0.0 | 22.5 | 0.00 | 0.00 | 0.00 | 78 | 1011.7 |
| 20260506105157 | 15 | 165 | 1.6 | 20.9 | 0.00 | 0.00 | 0.00 | 78 | 1011.6 |
| 20260506104157 | 15 | 188 | 0.0 | 25.7 | 0.00 | 0.00 | 0.00 | 78 | 1011.8 |
| 20260506103157 | 15 | 175 | 6.4 | 20.9 | 0.00 | 0.00 | 0.00 | 78 | 1011.6 |
| 20260506102157 | 15 | 195 | 1.6 | 19.3 | 0.00 | 0.00 | 0.00 | 78 | 1011.6 |
| 20260506101156 | 15 | 167 | 1.6 | 19.3 | 0.00 | 0.00 | 0.00 | 78 | 1011.5 |
| 20260506100157 | 15 | 170 | 6.4 | 22.5 | 0.00 | 0.00 | 0.00 | 78 | 1011.5 |
| 20260506095157 | 15 | 187 | 0.0 | 22.5 | 0.00 | 0.00 | 0.00 | 77 | 1011.5 |
| 20260506094156 | 15 | 156 | 3.2 | 20.9 | 0.00 | 0.00 | 0.00 | 77 | 1011.5 |
| 20260506092156 | 15 | 197 | 3.2 | 17.7 | 0.00 | 0.00 | 0.00 | 76 | 1011.6 |
| 20260506090156 | 15 | 191 | 0.0 | 20.9 | 0.00 | 0.00 | 0.00 | 76 | 1011.7 |
| 20260506085157 | 15 | 186 | 9.7 | 17.7 | 0.00 | 0.00 | 0.00 | 77 | 1011.8 |
| 20260506084156 | 15 | 159 | 0.0 | 4.8 | 0.00 | 0.00 | 0.00 | 76 | 1011.7 |
| 20260506083157 | 15 | 95 | 3.2 | 9.7 | 0.00 | 0.00 | 0.00 | 76 | 1011.8 |
| 20260506081157 | 15 | 163 | 0.0 | 17.7 | 0.00 | 0.00 | 0.00 | 76 | 1012.0 |
| 20260506080157 | 15 | 194 | 0.0 | 16.1 | 0.00 | 0.00 | 0.00 | 76 | 1012.1 |
| 20260506073156 | 15 | 193 | 0.0 | 9.7 | 0.00 | 0.00 | 0.00 | 75 | 1012.0 |
| 20260506072157 | 15 | 196 | 0.0 | 0.0 | 0.00 | 0.00 | 0.00 | 74 | 1012.0 |
| 20260506071157 | 15 | 195 | 0.0 | 9.7 | 0.00 | 0.00 | 0.00 | 74 | 1012.1 |
| 20260506070156 | 15 | 195 | 0.0 | 9.7 | 0.00 | 0.00 | 0.00 | 74 | 1012.1 |
| 20260506062157 | 16 | 187 | 0.0 | 8.0 | 0.00 | 0.00 | 0.00 | 72 | 1012.0 |
| 20260506061157 | 16 | 187 | 0.0 | 8.0 | 0.00 | 0.00 | 0.00 | 71 | 1012.0 |
| 20260506060156 | 16 | 186 | 0.0 | 8.0 | 0.00 | 0.00 | 0.00 | 70 | 1012.0 |
| 20260506051156 | 16 | 174 | 0.0 | 8.0 | 0.00 | 0.00 | 0.00 | 68 | 1012.0 |